PWSweather.com
Personal Weather Stations
Station Observations
2450ARBOR
Round Rock, TX 78681

Round Rock, TX 78681

Lat: 30.535239, Lon: -97.728137

Elevation: 800

Station Type:

High Low Average
Temperature 66.6°F19.2°C 38.5°F3.6°C 52.3°F11.3°C
Dew Point 51.0°F10.6°C 34.0°F1.1°C 42.1°F5.6°C
Winds 3.0 mph 4.8 kmh Calm Calm Calm SCalm S
Wind Gusts 4.0 mph6.4 kmh -- 1.0 mph1.6 kmh
Humidity 99% 34% 74%
Pressure 30.25 in1024.4 mb 30.02 in1016.6 mb -
Precipitation 0.00 in0.0 mm - -
Hour Temp Dew Point Humidity Winds Wind Gusts Pressure Precip Precip Rate Daily Precip Total
12:11 AM 49.8°F9.9°C 49.0°F9.4°C 98% 1.0 mph SE1.6 kmh SE 2.0 mph3.2 kmh 30.21 in1023.0 mb 0.61 in15.5 mm 3.33 in84.6 mm 0.67 in17.0 mm
12:41 AM 50.4°F10.2°C 50.0°F10.0°C 98% Calm Calm 1.0 mph1.6 kmh 30.21 in1023.0 mb 0.11 in2.8 mm 0.00 in0.0 mm 0.71 in18.0 mm
01:21 AM 49.3°F9.6°C 49.0°F9.4°C 98% Calm Calm -- 30.20 in1022.7 mb 0.02 in0.5 mm 0.00 in0.0 mm 0.61 in15.5 mm
01:51 AM 47.7°F8.7°C 47.0°F8.3°C 97% Calm Calm -- 30.20 in1022.7 mb 0.00 in0.0 mm 0.00 in0.0 mm 0.61 in15.5 mm
02:11 AM 46.9°F8.3°C 46.0°F7.8°C 97% Calm Calm -- 30.19 in1022.4 mb 0.00 in0.0 mm 0.00 in0.0 mm 0.61 in15.5 mm
02:41 AM 45.7°F7.6°C 45.0°F7.2°C 97% Calm Calm -- 30.18 in1022.0 mb 0.00 in0.0 mm 0.00 in0.0 mm 0.61 in15.5 mm
02:51 AM 45.7°F7.6°C 45.0°F7.2°C 97% Calm Calm -- 30.19 in1022.4 mb 0.00 in0.0 mm 0.00 in0.0 mm 0.61 in15.5 mm
03:40 AM 45.0°F7.2°C 44.0°F6.7°C 98% Calm Calm -- 30.18 in1022.0 mb 0.00 in0.0 mm 0.00 in0.0 mm 0.61 in15.5 mm
03:50 AM 45.5°F7.5°C 45.0°F7.2°C 98% Calm Calm -- 30.18 in1022.0 mb 0.00 in0.0 mm 0.00 in0.0 mm 0.61 in15.5 mm
04:31 AM 45.1°F7.3°C 45.0°F7.2°C 98% Calm Calm -- 30.19 in1022.4 mb 0.00 in0.0 mm 0.00 in0.0 mm 0.61 in15.5 mm
04:41 AM 45.3°F7.4°C 45.0°F7.2°C 98% Calm Calm -- 30.20 in1022.7 mb 0.00 in0.0 mm 0.00 in0.0 mm 0.61 in15.5 mm
05:31 AM 45.5°F7.5°C 45.0°F7.2°C 98% Calm Calm -- 30.19 in1022.4 mb 0.00 in0.0 mm 0.00 in0.0 mm 0.61 in15.5 mm
05:41 AM 45.5°F7.5°C 45.0°F7.2°C 98% Calm Calm -- 30.19 in1022.4 mb 0.00 in0.0 mm 0.00 in0.0 mm 0.61 in15.5 mm
06:21 AM 43.9°F6.6°C 43.0°F6.1°C 98% Calm Calm -- 30.19 in1022.4 mb 0.00 in0.0 mm 0.00 in0.0 mm 0.61 in15.5 mm
06:31 AM 43.7°F6.5°C 43.0°F6.1°C 98% Calm Calm -- 30.19 in1022.4 mb 0.00 in0.0 mm 0.00 in0.0 mm 0.61 in15.5 mm
06:40 AM 43.9°F6.6°C 44.0°F6.7°C 99% Calm Calm -- 30.19 in1022.4 mb 0.00 in0.0 mm 0.00 in0.0 mm 0.61 in15.5 mm
07:21 AM 44.2°F6.8°C 44.0°F6.7°C 99% Calm Calm -- 30.20 in1022.7 mb 0.00 in0.0 mm 0.00 in0.0 mm 0.61 in15.5 mm
07:31 AM 44.4°F6.9°C 44.0°F6.7°C 99% Calm Calm -- 30.20 in1022.7 mb 0.00 in0.0 mm 0.00 in0.0 mm 0.61 in15.5 mm
08:21 AM 45.1°F7.3°C 45.0°F7.2°C 99% Calm Calm -- 30.20 in1022.7 mb 0.00 in0.0 mm 0.00 in0.0 mm 0.61 in15.5 mm
08:41 AM 45.1°F7.3°C 45.0°F7.2°C 99% Calm Calm -- 30.20 in1022.7 mb 0.00 in0.0 mm 0.00 in0.0 mm 0.61 in15.5 mm
09:20 AM 47.5°F8.6°C 47.0°F8.3°C 99% Calm Calm -- 30.23 in1023.7 mb 0.00 in0.0 mm 0.00 in0.0 mm 0.61 in15.5 mm
09:31 AM 47.5°F8.6°C 47.0°F8.3°C 99% Calm Calm -- 30.23 in1023.7 mb 0.00 in0.0 mm 0.00 in0.0 mm 0.61 in15.5 mm
09:41 AM 47.8°F8.8°C 48.0°F8.9°C 99% Calm Calm -- 30.23 in1023.7 mb 0.00 in0.0 mm 0.00 in0.0 mm 0.61 in15.5 mm
10:21 AM 49.3°F9.6°C 49.0°F9.4°C 99% 2.0 mph NNW3.2 kmh NNW 3.0 mph4.8 kmh 30.25 in1024.4 mb 0.00 in0.0 mm 0.00 in0.0 mm 0.61 in15.5 mm
10:31 AM 50.0°F10.0°C 50.0°F10.0°C 99% 1.0 mph W1.6 kmh W 1.0 mph1.6 kmh 30.25 in1024.4 mb 0.00 in0.0 mm 0.00 in0.0 mm 0.61 in15.5 mm
11:21 AM 57.9°F14.4°C 50.0°F10.0°C 76% 1.0 mph 1.6 kmh 2.0 mph3.2 kmh 30.25 in1024.4 mb 0.00 in0.0 mm 0.00 in0.0 mm 0.61 in15.5 mm
11:41 AM 59.4°F15.2°C 50.0°F10.0°C 72% 2.0 mph NNW3.2 kmh NNW 2.0 mph3.2 kmh 30.25 in1024.4 mb 0.00 in0.0 mm 0.00 in0.0 mm 0.61 in15.5 mm
12:01 PM 59.7°F15.4°C 50.0°F10.0°C 70% 1.0 mph W1.6 kmh W 3.0 mph4.8 kmh 30.24 in1024.0 mb 0.00 in0.0 mm 0.00 in0.0 mm 0.61 in15.5 mm
12:31 PM 61.7°F16.5°C 51.0°F10.6°C 67% Calm Calm -- 30.24 in1024.0 mb 0.00 in0.0 mm 0.00 in0.0 mm 0.61 in15.5 mm
12:51 PM 63.3°F17.4°C 50.0°F10.0°C 62% 2.0 mph NNE3.2 kmh NNE 3.0 mph4.8 kmh 30.24 in1024.0 mb 0.00 in0.0 mm 0.00 in0.0 mm 0.61 in15.5 mm
01:01 PM 63.7°F17.6°C 48.0°F8.9°C 57% 3.0 mph NE4.8 kmh NE 4.0 mph6.4 kmh 30.22 in1023.4 mb 0.00 in0.0 mm 0.00 in0.0 mm 0.61 in15.5 mm
01:41 PM 63.9°F17.7°C 42.0°F5.6°C 44% Calm Calm 1.0 mph1.6 kmh 30.22 in1023.4 mb 0.00 in0.0 mm 0.00 in0.0 mm 0.61 in15.5 mm
01:51 PM 65.7°F18.7°C 41.0°F5.0°C 40% 1.0 mph ENE1.6 kmh ENE 1.0 mph1.6 kmh 30.22 in1023.4 mb 0.00 in0.0 mm 0.00 in0.0 mm 0.61 in15.5 mm
02:01 PM 64.9°F18.3°C 43.0°F6.1°C 45% 2.0 mph SSE3.2 kmh SSE 2.0 mph3.2 kmh 30.22 in1023.4 mb 0.00 in0.0 mm 0.00 in0.0 mm 0.61 in15.5 mm
02:31 PM 66.6°F19.2°C 40.0°F4.4°C 38% 2.0 mph SW3.2 kmh SW 3.0 mph4.8 kmh 30.19 in1022.4 mb 0.00 in0.0 mm 0.00 in0.0 mm 0.61 in15.5 mm
02:41 PM 66.6°F19.2°C 40.0°F4.4°C 38% Calm Calm -- 30.19 in1022.4 mb 0.00 in0.0 mm 0.00 in0.0 mm 0.61 in15.5 mm
03:21 PM 65.8°F18.8°C 37.0°F2.8°C 35% 1.0 mph SSW1.6 kmh SSW 1.0 mph1.6 kmh 30.15 in1021.0 mb 0.00 in0.0 mm 0.00 in0.0 mm 0.61 in15.5 mm
03:31 PM 66.6°F19.2°C 37.0°F2.8°C 34% 2.0 mph SW3.2 kmh SW 2.0 mph3.2 kmh 30.15 in1021.0 mb 0.00 in0.0 mm 0.00 in0.0 mm 0.61 in15.5 mm
03:41 PM 66.4°F19.1°C 38.0°F3.3°C 35% Calm Calm -- 30.15 in1021.0 mb 0.00 in0.0 mm 0.00 in0.0 mm 0.61 in15.5 mm
04:11 PM 66.0°F18.9°C 38.0°F3.3°C 35% Calm Calm -- 30.12 in1020.0 mb 0.00 in0.0 mm 0.00 in0.0 mm 0.61 in15.5 mm
04:21 PM 65.8°F18.8°C 38.0°F3.3°C 36% 1.0 mph W1.6 kmh W 1.0 mph1.6 kmh 30.12 in1020.0 mb 0.00 in0.0 mm 0.00 in0.0 mm 0.61 in15.5 mm
04:31 PM 65.1°F18.4°C 37.0°F2.8°C 35% 2.0 mph 3.2 kmh 2.0 mph3.2 kmh 30.12 in1020.0 mb 0.00 in0.0 mm 0.00 in0.0 mm 0.61 in15.5 mm
05:01 PM 64.6°F18.1°C 36.0°F2.2°C 35% 1.0 mph SW1.6 kmh SW 1.0 mph1.6 kmh 30.10 in1019.3 mb 0.00 in0.0 mm 0.00 in0.0 mm 0.61 in15.5 mm
05:10 PM 64.6°F18.1°C 36.0°F2.2°C 34% Calm Calm -- 30.10 in1019.3 mb 0.00 in0.0 mm 0.00 in0.0 mm 0.61 in15.5 mm
06:01 PM 61.9°F16.6°C 35.0°F1.7°C 36% Calm Calm 1.0 mph1.6 kmh 30.10 in1019.3 mb 0.00 in0.0 mm 0.00 in0.0 mm 0.61 in15.5 mm
06:31 PM 59.5°F15.3°C 34.0°F1.1°C 39% Calm Calm 1.0 mph1.6 kmh 30.08 in1018.6 mb 0.00 in0.0 mm 0.00 in0.0 mm 0.61 in15.5 mm
06:41 PM 58.6°F14.8°C 35.0°F1.7°C 41% Calm Calm -- 30.08 in1018.6 mb 0.00 in0.0 mm 0.00 in0.0 mm 0.61 in15.5 mm
06:51 PM 57.6°F14.2°C 35.0°F1.7°C 43% Calm Calm -- 30.08 in1018.6 mb 0.00 in0.0 mm 0.00 in0.0 mm 0.61 in15.5 mm
07:21 PM 53.8°F12.1°C 37.0°F2.8°C 53% Calm Calm -- 30.07 in1018.3 mb 0.00 in0.0 mm 0.00 in0.0 mm 0.61 in15.5 mm
07:31 PM 52.7°F11.5°C 38.0°F3.3°C 57% Calm Calm -- 30.07 in1018.3 mb 0.00 in0.0 mm 0.00 in0.0 mm 0.61 in15.5 mm
08:01 PM 49.5°F9.7°C 38.0°F3.3°C 65% Calm Calm -- 30.07 in1018.3 mb 0.00 in0.0 mm 0.00 in0.0 mm 0.61 in15.5 mm
08:51 PM 45.5°F7.5°C 39.0°F3.9°C 77% Calm Calm -- 30.07 in1018.3 mb 0.00 in0.0 mm 0.00 in0.0 mm 0.61 in15.5 mm
09:10 PM 44.8°F7.1°C 39.0°F3.9°C 81% Calm Calm -- 30.06 in1017.9 mb 0.00 in0.0 mm 0.00 in0.0 mm 0.61 in15.5 mm
09:41 PM 43.2°F6.2°C 38.0°F3.3°C 83% Calm Calm -- 30.06 in1017.9 mb 0.00 in0.0 mm 0.00 in0.0 mm 0.61 in15.5 mm
10:01 PM 42.8°F6.0°C 39.0°F3.9°C 86% Calm Calm -- 30.05 in1017.6 mb 0.00 in0.0 mm 0.00 in0.0 mm 0.61 in15.5 mm
10:11 PM 42.4°F5.8°C 39.0°F3.9°C 87% Calm Calm -- 30.05 in1017.6 mb 0.00 in0.0 mm 0.00 in0.0 mm 0.61 in15.5 mm
11:01 PM 40.5°F4.7°C 38.0°F3.3°C 90% Calm Calm -- 30.03 in1016.9 mb 0.00 in0.0 mm 0.00 in0.0 mm 0.61 in15.5 mm
11:21 PM 39.9°F4.4°C 38.0°F3.3°C 91% Calm Calm -- 30.03 in1016.9 mb 0.00 in0.0 mm 0.00 in0.0 mm 0.61 in15.5 mm